Time;durP1;ratioP1;P1;durP2;ratioP2;P2;SDS_P1;SDS_P2;PMS_P1;PMS_P2;Temp;Humidity;BMP_temperature;BMP_pressure;BME280_temperature;BME280_humidity;BME280_pressure;Samples;Min_cycle;Max_cycle;Signal;HPM_P1;HPM_P2
2021/11/06 00:00:24;;;;;;;16.48;11.40;;;;;;;;;;4954442;28;20038;-69
2021/11/06 00:02:50;;;;;;;19.73;11.65;;;;;;;;;;4949740;29;20020;-69
2021/11/06 00:05:16;;;;;;;24.52;11.57;;;;;;;;;;4932526;28;20027;-69
2021/11/06 00:07:42;;;;;;;21.33;10.55;;;;;;;;;;4951656;29;20035;-69
2021/11/06 00:10:09;;;;;;;24.77;12.50;;;;;;;;;;4951702;29;20106;-69
2021/11/06 00:12:36;;;;;;;20.58;10.27;;;;;;;;;;4934511;28;20134;-69
2021/11/06 00:15:02;;;;;;;14.88;10.18;;;;;;;;;;4955066;28;20023;-69
2021/11/06 00:17:28;;;;;;;19.00;11.60;;;;;;;;;;4953434;29;20035;-69
2021/11/06 00:19:54;;;;;;;16.80;11.88;;;;;;;;;;4949588;29;20432;-69
2021/11/06 00:22:20;;;;;;;16.67;12.07;;;;;;;;;;4946434;28;20086;-69
2021/11/06 00:24:46;;;;;;;19.65;11.93;;;;;;;;;;4941750;28;20415;-69
2021/11/06 00:27:12;;;;;;;25.45;12.80;;;;;;;;;;4955389;29;20086;-69
2021/11/06 00:29:38;;;;;;;17.50;11.75;;;;;;;;;;4953831;29;20035;-69
2021/11/06 00:32:04;;;;;;;18.65;11.60;;;;;;;;;;4956139;29;20023;-69
2021/11/06 00:34:30;;;;;;;19.67;11.68;;;;;;;;;;4946617;28;20031;-69
2021/11/06 00:36:56;;;;;;;23.55;12.57;;;;;;;;;;4955405;29;20404;-69
2021/11/06 00:39:23;;;;;;;24.48;12.38;;;;;;;;;;4953249;29;20027;-70
2021/11/06 00:41:49;;;;;;;22.40;12.80;;;;;;;;;;4944286;29;20403;-69
2021/11/06 00:44:15;;;;;;;18.63;12.90;;;;;;;;;;4955158;29;20078;-69
2021/11/06 00:46:41;;;;;;;18.65;12.30;;;;;;;;;;4949047;28;20036;-69
2021/11/06 00:49:07;;;;;;;19.48;12.02;;;;;;;;;;4954077;29;20051;-69
2021/11/06 00:51:33;;;;;;;23.17;12.10;;;;;;;;;;4954864;29;20051;-69
2021/11/06 00:53:59;;;;;;;25.80;12.75;;;;;;;;;;4947394;29;20038;-69
2021/11/06 00:56:25;;;;;;;20.88;12.88;;;;;;;;;;4954862;29;20035;-69
2021/11/06 00:58:51;;;;;;;18.83;12.73;;;;;;;;;;4953432;29;20038;-69
2021/11/06 01:01:17;;;;;;;21.90;14.13;;;;;;;;;;4956956;28;20530;-69
2021/11/06 01:03:43;;;;;;;29.52;13.77;;;;;;;;;;4955352;29;20090;-69
2021/11/06 01:06:09;;;;;;;20.70;13.63;;;;;;;;;;4954930;29;20031;-69
2021/11/06 01:08:35;;;;;;;18.02;13.43;;;;;;;;;;4936277;29;20043;-69
2021/11/06 01:11:02;;;;;;;19.52;12.85;;;;;;;;;;4954962;29;20051;-69
2021/11/06 01:13:28;;;;;;;23.10;13.90;;;;;;;;;;4959221;28;20035;-69
2021/11/06 01:15:54;;;;;;;18.38;13.23;;;;;;;;;;4954461;29;20039;-69
2021/11/06 01:18:20;;;;;;;24.10;13.77;;;;;;;;;;4953926;29;20042;-69
2021/11/06 01:20:46;;;;;;;20.25;13.35;;;;;;;;;;4954579;29;20019;-69
2021/11/06 01:23:12;;;;;;;26.00;15.25;;;;;;;;;;4955166;29;20062;-69
2021/11/06 01:25:38;;;;;;;18.85;14.50;;;;;;;;;;4953520;28;20023;-69
2021/11/06 01:28:05;;;;;;;25.77;15.68;;;;;;;;;;4939857;28;20027;-69
2021/11/06 01:30:31;;;;;;;23.40;16.27;;;;;;;;;;4954951;29;20407;-70
2021/11/06 01:32:57;;;;;;;24.73;15.90;;;;;;;;;;4952045;29;20127;-69
2021/11/06 01:35:23;;;;;;;26.08;15.50;;;;;;;;;;4954324;29;20492;-69
2021/11/06 01:37:49;;;;;;;22.13;15.13;;;;;;;;;;4947574;29;20691;-69
2021/11/06 01:40:17;;;;;;;32.60;16.45;;;;;;;;;;4954389;29;20050;-69
2021/11/06 01:42:43;;;;;;;26.02;16.30;;;;;;;;;;4952034;29;20110;-69
2021/11/06 01:45:10;;;;;;;25.35;16.90;;;;;;;;;;4954598;29;20044;-69
2021/11/06 01:47:36;;;;;;;29.85;19.13;;;;;;;;;;4949204;29;20038;-69
2021/11/06 01:50:03;;;;;;;25.17;16.33;;;;;;;;;;4937250;29;20031;-69
2021/11/06 01:52:29;;;;;;;28.25;16.15;;;;;;;;;;4954471;29;20495;-69
2021/11/06 01:54:55;;;;;;;29.13;16.88;;;;;;;;;;4954365;29;20023;-69
2021/11/06 01:57:22;;;;;;;26.52;16.50;;;;;;;;;;4953705;29;20504;-69
2021/11/06 01:59:48;;;;;;;26.83;18.27;;;;;;;;;;4952756;29;20038;-69
2021/11/06 02:02:15;;;;;;;31.08;16.88;;;;;;;;;;4954650;28;20027;-69
2021/11/06 02:04:42;;;;;;;25.40;16.50;;;;;;;;;;4953359;29;20027;-69
2021/11/06 02:07:08;;;;;;;24.90;17.35;;;;;;;;;;4954025;29;20078;-69
2021/11/06 02:09:34;;;;;;;24.48;16.70;;;;;;;;;;4944671;29;20024;-69
2021/11/06 02:12:00;;;;;;;23.00;17.15;;;;;;;;;;4954575;28;20464;-69
2021/11/06 02:14:26;;;;;;;26.52;17.95;;;;;;;;;;4956579;28;20067;-69
2021/11/06 02:16:52;;;;;;;31.30;15.48;;;;;;;;;;4945916;29;20039;-69
2021/11/06 02:19:25;;;;;;;28.50;16.48;;;;;;;;;;4946420;28;20024;-69
2021/11/06 02:21:52;;;;;;;23.42;15.77;;;;;;;;;;4942551;28;20027;-69
2021/11/06 02:24:18;;;;;;;28.40;16.98;;;;;;;;;;4943085;28;20023;-69
2021/11/06 02:26:45;;;;;;;25.70;16.85;;;;;;;;;;4944253;28;20046;-69
2021/11/06 02:29:12;;;;;;;30.33;15.95;;;;;;;;;;4952396;29;20485;-70
2021/11/06 02:31:38;;;;;;;29.05;18.90;;;;;;;;;;4949751;28;20043;-69
2021/11/06 02:34:04;;;;;;;25.05;16.42;;;;;;;;;;4949471;29;20023;-69
2021/11/06 02:36:30;;;;;;;24.73;16.73;;;;;;;;;;4949578;28;20404;-69
2021/11/06 02:38:56;;;;;;;24.35;16.27;;;;;;;;;;4951565;29;20431;-69
2021/11/06 02:41:23;;;;;;;22.80;16.95;;;;;;;;;;4953251;29;20019;-69
2021/11/06 02:43:49;;;;;;;24.08;17.48;;;;;;;;;;4950310;29;20027;-69
2021/11/06 02:46:16;;;;;;;26.90;18.73;;;;;;;;;;4948435;29;20031;-69
2021/11/06 02:48:42;;;;;;;25.05;16.83;;;;;;;;;;4945769;29;20503;-68
2021/11/06 02:51:08;;;;;;;20.90;15.93;;;;;;;;;;4953314;29;20030;-69
2021/11/06 02:53:34;;;;;;;29.10;17.48;;;;;;;;;;4935308;29;20033;-69
2021/11/06 02:56:00;;;;;;;28.13;16.65;;;;;;;;;;4953271;29;20035;-69
2021/11/06 02:58:27;;;;;;;26.27;16.67;;;;;;;;;;4951584;29;20027;-69
2021/11/06 03:00:53;;;;;;;23.40;16.58;;;;;;;;;;4943135;29;20051;-69
2021/11/06 03:03:19;;;;;;;28.08;17.55;;;;;;;;;;4940854;29;20399;-69
2021/11/06 03:05:45;;;;;;;29.27;19.05;;;;;;;;;;4950339;29;20074;-69
2021/11/06 03:08:11;;;;;;;28.63;18.58;;;;;;;;;;4945745;29;20032;-70
2021/11/06 03:10:38;;;;;;;24.35;17.08;;;;;;;;;;4952830;29;20047;-69
2021/11/06 03:13:04;;;;;;;27.13;17.13;;;;;;;;;;4952096;29;20035;-69
2021/11/06 03:15:30;;;;;;;24.60;17.33;;;;;;;;;;4953274;29;20039;-69
2021/11/06 03:17:56;;;;;;;26.08;16.73;;;;;;;;;;4951475;29;20035;-69
2021/11/06 03:20:23;;;;;;;29.42;18.65;;;;;;;;;;4950959;29;20039;-69
2021/11/06 03:22:51;;;;;;;28.48;18.42;;;;;;;;;;4951959;28;20067;-69
2021/11/06 03:25:18;;;;;;;29.73;19.38;;;;;;;;;;4958034;28;20117;-69
2021/11/06 03:27:44;;;;;;;29.92;18.10;;;;;;;;;;4952859;28;20082;-69
2021/11/06 03:30:11;;;;;;;31.83;18.27;;;;;;;;;;4945655;29;20027;-69
2021/11/06 03:32:38;;;;;;;26.98;17.58;;;;;;;;;;4952817;28;20036;-69
2021/11/06 03:35:06;;;;;;;33.85;19.60;;;;;;;;;;4935548;28;20034;-69
2021/11/06 03:37:32;;;;;;;31.85;19.80;;;;;;;;;;4944345;29;20030;-69
2021/11/06 03:39:58;;;;;;;36.67;21.23;;;;;;;;;;4942359;29;20039;-69
2021/11/06 03:42:24;;;;;;;36.13;20.38;;;;;;;;;;4935663;28;20452;-69
2021/11/06 03:44:50;;;;;;;36.80;21.85;;;;;;;;;;4950749;29;20027;-69
2021/11/06 03:47:16;;;;;;;36.78;20.70;;;;;;;;;;4944204;28;20122;-70
2021/11/06 03:49:42;;;;;;;35.83;21.60;;;;;;;;;;4936772;28;20080;-69
2021/11/06 03:52:08;;;;;;;34.42;21.65;;;;;;;;;;4952505;29;20485;-69
2021/11/06 03:54:34;;;;;;;38.80;22.27;;;;;;;;;;4946397;29;20551;-69
2021/11/06 03:57:00;;;;;;;33.00;21.85;;;;;;;;;;4952451;29;20035;-69
2021/11/06 03:59:26;;;;;;;37.08;22.63;;;;;;;;;;4950116;29;20032;-69
2021/11/06 04:01:53;;;;;;;32.78;21.30;;;;;;;;;;4941843;29;20090;-69
2021/11/06 04:04:19;;;;;;;35.58;22.30;;;;;;;;;;4952119;29;20038;-69
2021/11/06 04:06:45;;;;;;;42.33;24.42;;;;;;;;;;4951936;29;20035;-70
2021/11/06 04:09:11;;;;;;;35.47;22.98;;;;;;;;;;4950828;29;20607;-69
2021/11/06 04:11:37;;;;;;;30.20;21.02;;;;;;;;;;4953634;28;20055;-70
2021/11/06 04:14:03;;;;;;;36.17;23.52;;;;;;;;;;4951603;29;20023;-69
2021/11/06 04:16:29;;;;;;;34.05;21.90;;;;;;;;;;4952329;29;20036;-70
2021/11/06 04:18:55;;;;;;;33.80;20.83;;;;;;;;;;4939477;28;20514;-69
2021/11/06 04:21:22;;;;;;;31.85;20.48;;;;;;;;;;4951027;29;20389;-69
2021/11/06 04:23:48;;;;;;;38.17;21.98;;;;;;;;;;4952390;28;20094;-69
2021/11/06 04:26:14;;;;;;;36.38;21.15;;;;;;;;;;4952352;29;20031;-69
2021/11/06 04:28:40;;;;;;;32.83;21.13;;;;;;;;;;4945067;29;20016;-69
2021/11/06 04:31:06;;;;;;;33.13;20.67;;;;;;;;;;4951855;29;20027;-70
2021/11/06 04:33:32;;;;;;;31.77;20.77;;;;;;;;;;4951390;29;20082;-69
2021/11/06 04:35:58;;;;;;;33.90;20.10;;;;;;;;;;4939133;28;20067;-69
2021/11/06 04:38:24;;;;;;;29.88;20.20;;;;;;;;;;4944467;28;20034;-69
2021/11/06 04:40:50;;;;;;;31.90;20.58;;;;;;;;;;4951915;29;20027;-69
2021/11/06 04:43:16;;;;;;;33.35;21.60;;;;;;;;;;4951880;29;20047;-69
2021/11/06 04:45:43;;;;;;;28.67;19.73;;;;;;;;;;4951689;29;20032;-69
2021/11/06 04:48:09;;;;;;;30.77;20.85;;;;;;;;;;4933760;28;20027;-69
2021/11/06 04:50:35;;;;;;;32.50;20.52;;;;;;;;;;4948183;29;20032;-69
2021/11/06 04:53:01;;;;;;;32.17;19.15;;;;;;;;;;4952386;29;20027;-69
2021/11/06 04:55:27;;;;;;;29.02;18.95;;;;;;;;;;4952075;29;20023;-69
2021/11/06 04:57:53;;;;;;;27.08;18.95;;;;;;;;;;4950572;29;20035;-70
2021/11/06 05:00:19;;;;;;;30.13;19.25;;;;;;;;;;4951835;28;20027;-69
2021/11/06 05:02:45;;;;;;;26.95;19.98;;;;;;;;;;4957553;28;20082;-69
2021/11/06 05:05:11;;;;;;;26.38;18.55;;;;;;;;;;4945525;29;20035;-69
2021/11/06 05:07:37;;;;;;;33.45;18.55;;;;;;;;;;4950483;29;20492;-69
2021/11/06 05:10:05;;;;;;;27.92;18.75;;;;;;;;;;4936684;28;20070;-69
2021/11/06 05:12:31;;;;;;;30.48;21.08;;;;;;;;;;4955191;29;20085;-69
2021/11/06 05:14:57;;;;;;;28.23;18.50;;;;;;;;;;4952146;28;20491;-69
2021/11/06 05:17:23;;;;;;;25.95;18.75;;;;;;;;;;4955379;29;20052;-69
2021/11/06 05:19:50;;;;;;;24.45;18.05;;;;;;;;;;4953041;29;20031;-69
2021/11/06 05:22:16;;;;;;;25.95;17.77;;;;;;;;;;4949406;29;20083;-69
2021/11/06 05:24:42;;;;;;;32.55;19.50;;;;;;;;;;4939499;29;20235;-70
2021/11/06 05:27:08;;;;;;;25.92;16.65;;;;;;;;;;4952913;29;20027;-69
2021/11/06 05:29:34;;;;;;;26.08;17.08;;;;;;;;;;4948718;29;20041;-69
2021/11/06 05:32:00;;;;;;;26.65;17.75;;;;;;;;;;4955039;29;20031;-69
2021/11/06 05:34:27;;;;;;;29.25;18.13;;;;;;;;;;4943851;29;20170;-69
2021/11/06 05:36:53;;;;;;;29.88;17.70;;;;;;;;;;4950320;29;20038;-69
2021/11/06 05:39:19;;;;;;;28.67;18.02;;;;;;;;;;4935843;29;20453;-69
2021/11/06 05:41:45;;;;;;;22.88;18.10;;;;;;;;;;4947773;28;20035;-69
2021/11/06 05:44:11;;;;;;;23.98;18.48;;;;;;;;;;4949999;28;20197;-69
2021/11/06 05:46:37;;;;;;;25.00;17.08;;;;;;;;;;4950931;29;20511;-69
2021/11/06 05:49:03;;;;;;;26.30;18.42;;;;;;;;;;4946712;28;20054;-69
2021/11/06 05:51:29;;;;;;;26.20;18.73;;;;;;;;;;4953810;29;20031;-69
2021/11/06 05:53:56;;;;;;;26.27;17.85;;;;;;;;;;4942895;28;20034;-69
2021/11/06 05:56:22;;;;;;;23.83;17.02;;;;;;;;;;4954080;29;20027;-69
2021/11/06 05:58:48;;;;;;;30.45;17.52;;;;;;;;;;4944969;29;20027;-69
2021/11/06 06:01:14;;;;;;;23.27;17.55;;;;;;;;;;4954196;29;20027;-69
2021/11/06 06:03:40;;;;;;;28.00;16.98;;;;;;;;;;4947704;29;20038;-71
2021/11/06 06:06:08;;;;;;;24.52;16.15;;;;;;;;;;4942433;29;20408;-69
2021/11/06 06:08:34;;;;;;;24.25;15.43;;;;;;;;;;4951109;29;20098;-69
2021/11/06 06:11:00;;;;;;;22.23;15.07;;;;;;;;;;4952819;28;20467;-69
2021/11/06 06:13:27;;;;;;;20.67;15.00;;;;;;;;;;4952490;29;20130;-69
2021/11/06 06:15:54;;;;;;;20.70;14.18;;;;;;;;;;4953615;29;20037;-69
2021/11/06 06:18:20;;;;;;;22.27;15.00;;;;;;;;;;4952030;29;20504;-69
2021/11/06 06:20:46;;;;;;;23.30;14.52;;;;;;;;;;4952898;29;20031;-69
2021/11/06 06:23:12;;;;;;;22.45;15.07;;;;;;;;;;4948294;28;20424;-69
2021/11/06 06:25:38;;;;;;;22.58;13.30;;;;;;;;;;4953844;29;20034;-69
2021/11/06 06:28:06;;;;;;;20.75;13.45;;;;;;;;;;4949962;29;20030;-69
2021/11/06 06:30:35;;;;;;;20.48;13.48;;;;;;;;;;4953599;29;20031;-69
2021/11/06 06:33:01;;;;;;;22.33;14.60;;;;;;;;;;4953816;29;20109;-69
2021/11/06 06:35:29;;;;;;;26.52;14.85;;;;;;;;;;4953356;29;20031;-69
2021/11/06 06:37:55;;;;;;;18.95;13.18;;;;;;;;;;4952034;29;20032;-69
2021/11/06 06:40:21;;;;;;;22.13;13.85;;;;;;;;;;4937057;28;20042;-69
2021/11/06 06:42:48;;;;;;;22.30;13.55;;;;;;;;;;4952874;28;20027;-69
2021/11/06 06:45:14;;;;;;;22.77;14.18;;;;;;;;;;4953661;29;20069;-69
2021/11/06 06:47:40;;;;;;;24.33;12.80;;;;;;;;;;4937819;28;20119;-69
2021/11/06 06:50:07;;;;;;;22.02;14.07;;;;;;;;;;4955443;28;20409;-69
2021/11/06 06:52:33;;;;;;;21.35;14.27;;;;;;;;;;4954405;28;20065;-69
2021/11/06 06:54:59;;;;;;;23.50;14.68;;;;;;;;;;4953933;29;20539;-69
2021/11/06 06:57:25;;;;;;;21.20;13.95;;;;;;;;;;4953301;29;20039;-69
2021/11/06 06:59:51;;;;;;;19.92;14.60;;;;;;;;;;4948948;29;20039;-69
2021/11/06 07:02:18;;;;;;;18.35;14.25;;;;;;;;;;4932919;28;20020;-69
2021/11/06 07:04:44;;;;;;;21.73;14.30;;;;;;;;;;4945315;28;20930;-69
2021/11/06 07:07:10;;;;;;;19.65;12.77;;;;;;;;;;4952341;28;20023;-69
2021/11/06 07:09:37;;;;;;;20.30;13.35;;;;;;;;;;4951583;29;20034;-69
2021/11/06 07:12:03;;;;;;;20.83;13.43;;;;;;;;;;4956231;28;20034;-69
2021/11/06 07:14:29;;;;;;;18.25;12.82;;;;;;;;;;4952075;29;20038;-69
2021/11/06 07:16:55;;;;;;;17.73;13.68;;;;;;;;;;4927429;29;20171;-69
2021/11/06 07:19:21;;;;;;;19.05;13.45;;;;;;;;;;4946708;29;20074;-69
2021/11/06 07:21:47;;;;;;;20.83;13.75;;;;;;;;;;4952569;29;20035;-69
2021/11/06 07:24:13;;;;;;;19.45;13.75;;;;;;;;;;4951641;28;20051;-70
2021/11/06 07:26:39;;;;;;;17.38;13.60;;;;;;;;;;4952308;29;20110;-70
2021/11/06 07:29:05;;;;;;;19.40;14.13;;;;;;;;;;4950909;29;20038;-69
2021/11/06 07:31:32;;;;;;;18.55;14.77;;;;;;;;;;4951582;28;20035;-69
2021/11/06 07:33:58;;;;;;;27.35;15.50;;;;;;;;;;4952382;29;20058;-69
2021/11/06 07:36:24;;;;;;;20.80;15.00;;;;;;;;;;4952238;29;20027;-69
2021/11/06 07:38:52;;;;;;;24.40;14.30;;;;;;;;;;4951450;28;20066;-69
2021/11/06 07:41:19;;;;;;;20.85;15.32;;;;;;;;;;4936815;28;20159;-69
2021/11/06 07:43:45;;;;;;;22.33;14.50;;;;;;;;;;4949376;29;20035;-69
2021/11/06 07:46:11;;;;;;;20.77;15.95;;;;;;;;;;4949053;28;20494;-69
2021/11/06 07:48:37;;;;;;;18.02;14.80;;;;;;;;;;4948520;29;20046;-69
2021/11/06 07:51:03;;;;;;;19.63;14.88;;;;;;;;;;4951369;29;20071;-69
2021/11/06 07:53:29;;;;;;;28.65;15.63;;;;;;;;;;4942473;28;20023;-70
2021/11/06 07:55:56;;;;;;;20.55;14.52;;;;;;;;;;4951807;29;20032;-69
2021/11/06 07:58:22;;;;;;;16.77;14.55;;;;;;;;;;5017038;23;20062;-73
2021/11/06 08:00:48;;;;;;;16.83;13.60;;;;;;;;;;4972697;28;20023;-73
2021/11/06 08:03:15;;;;;;;17.92;14.18;;;;;;;;;;4970253;28;20027;-72
2021/11/06 08:05:42;;;;;;;17.23;13.98;;;;;;;;;;4970491;28;20030;-72
2021/11/06 08:08:08;;;;;;;23.10;13.27;;;;;;;;;;4966678;28;20027;-72
2021/11/06 08:10:34;;;;;;;20.08;14.98;;;;;;;;;;4963836;28;20031;-72
2021/11/06 08:13:02;;;;;;;19.55;13.55;;;;;;;;;;4971228;28;20019;-74
2021/11/06 08:15:28;;;;;;;22.27;14.95;;;;;;;;;;4969317;28;20148;-75
2021/11/06 08:17:55;;;;;;;26.63;16.02;;;;;;;;;;4969862;28;20034;-72
2021/11/06 08:20:24;;;;;;;18.35;14.15;;;;;;;;;;4968726;28;20023;-72
2021/11/06 08:22:51;;;;;;;20.88;14.73;;;;;;;;;;4970467;28;20539;-72
2021/11/06 08:25:17;;;;;;;18.85;13.73;;;;;;;;;;4971091;28;20086;-73
2021/11/06 08:27:48;;;;;;;21.80;14.70;;;;;;;;;;4971404;28;20030;-73
2021/11/06 08:30:16;;;;;;;16.95;14.05;;;;;;;;;;4971580;28;20089;-73
2021/11/06 08:32:42;;;;;;;17.55;14.40;;;;;;;;;;4970876;28;20030;-73
2021/11/06 08:35:09;;;;;;;18.83;14.90;;;;;;;;;;4969349;28;20034;-72
2021/11/06 08:37:36;;;;;;;15.10;13.52;;;;;;;;;;4971846;28;20038;-72
2021/11/06 08:40:02;;;;;;;16.63;14.40;;;;;;;;;;4972013;28;20019;-73
2021/11/06 08:42:28;;;;;;;21.17;15.52;;;;;;;;;;4974421;28;20097;-73
2021/11/06 08:44:55;;;;;;;17.90;15.25;;;;;;;;;;4974010;28;20026;-73
2021/11/06 08:47:21;;;;;;;17.40;14.38;;;;;;;;;;4974499;28;20493;-73
2021/11/06 08:49:47;;;;;;;20.60;14.23;;;;;;;;;;4970730;28;20038;-73
2021/11/06 08:52:18;;;;;;;19.65;13.88;;;;;;;;;;4977258;28;20018;-73
2021/11/06 08:54:44;;;;;;;21.20;14.47;;;;;;;;;;4974183;28;20506;-73
2021/11/06 08:57:10;;;;;;;17.27;14.15;;;;;;;;;;4974484;28;20038;-73
2021/11/06 08:59:36;;;;;;;22.77;14.43;;;;;;;;;;4964945;28;20071;-72
2021/11/06 09:02:03;;;;;;;17.90;13.68;;;;;;;;;;4978887;28;20397;-72
2021/11/06 09:04:29;;;;;;;16.02;12.60;;;;;;;;;;4973424;28;20047;-74
2021/11/06 09:06:55;;;;;;;15.60;13.82;;;;;;;;;;4971235;28;20026;-72
2021/11/06 09:09:22;;;;;;;19.73;13.20;;;;;;;;;;4964149;28;20023;-73
2021/11/06 09:11:49;;;;;;;19.35;13.57;;;;;;;;;;4976448;28;20035;-73
2021/11/06 09:14:15;;;;;;;17.25;13.63;;;;;;;;;;4972043;28;20033;-73
2021/11/06 09:16:42;;;;;;;18.75;13.88;;;;;;;;;;4970110;28;20023;-72
2021/11/06 09:19:08;;;;;;;19.15;14.63;;;;;;;;;;4965314;28;20173;-72
2021/11/06 09:21:34;;;;;;;28.05;14.85;;;;;;;;;;4970020;28;20023;-75
2021/11/06 09:24:03;;;;;;;19.45;14.85;;;;;;;;;;4971807;28;20081;-74
2021/11/06 09:26:31;;;;;;;17.95;14.30;;;;;;;;;;4968173;28;20503;-73
2021/11/06 09:28:57;;;;;;;23.60;16.17;;;;;;;;;;4968889;28;20065;-73
2021/11/06 09:31:23;;;;;;;19.08;17.08;;;;;;;;;;4970659;28;20027;-73
2021/11/06 09:33:49;;;;;;;20.55;15.45;;;;;;;;;;4967638;28;20166;-74
2021/11/06 09:36:16;;;;;;;16.95;15.25;;;;;;;;;;4980820;28;20039;-74
2021/11/06 09:38:42;;;;;;;19.83;15.68;;;;;;;;;;4964908;28;20039;-73
2021/11/06 09:41:10;;;;;;;21.58;16.52;;;;;;;;;;4968124;28;20023;-73
2021/11/06 09:43:37;;;;;;;22.73;16.88;;;;;;;;;;4969034;28;20019;-77
2021/11/06 09:46:04;;;;;;;22.65;16.83;;;;;;;;;;4968472;28;20027;-75
2021/11/06 09:48:31;;;;;;;22.67;17.00;;;;;;;;;;4968738;28;20058;-75
2021/11/06 09:50:59;;;;;;;20.38;16.20;;;;;;;;;;4966252;28;20129;-74
2021/11/06 09:53:25;;;;;;;23.73;16.33;;;;;;;;;;4970471;28;20499;-74
2021/11/06 09:55:52;;;;;;;33.05;16.27;;;;;;;;;;4969200;28;20110;-74
2021/11/06 09:58:18;;;;;;;20.30;16.02;;;;;;;;;;4969960;28;20580;-74
2021/11/06 10:00:44;;;;;;;21.63;16.30;;;;;;;;;;4970228;28;20038;-73
2021/11/06 10:03:11;;;;;;;20.92;16.30;;;;;;;;;;4967484;28;20030;-75
2021/11/06 10:05:49;;;;;;;22.60;17.52;;;;;;;;;;4970805;28;20019;-74
2021/11/06 10:08:19;;;;;;;18.83;16.52;;;;;;;;;;4967800;28;20116;-74
2021/11/06 10:10:46;;;;;;;21.33;16.48;;;;;;;;;;4969121;28;20126;-74
2021/11/06 10:13:12;;;;;;;19.48;15.48;;;;;;;;;;4970013;28;20047;-74
2021/11/06 10:15:47;;;;;;;20.35;15.57;;;;;;;;;;4969084;28;20031;-73
2021/11/06 10:18:17;;;;;;;20.05;16.67;;;;;;;;;;4967007;28;20653;-74
2021/11/06 10:20:45;;;;;;;20.42;15.98;;;;;;;;;;4970719;28;20061;-74
2021/11/06 10:23:11;;;;;;;17.80;15.60;;;;;;;;;;4968371;28;20433;-75
2021/11/06 10:25:37;;;;;;;18.08;15.38;;;;;;;;;;4969977;28;20034;-74
2021/11/06 10:28:13;;;;;;;17.95;15.00;;;;;;;;;;4966560;28;20037;-73
2021/11/06 10:30:43;;;;;;;26.98;17.20;;;;;;;;;;4971514;28;20085;-75
2021/11/06 10:33:12;;;;;;;24.77;15.82;;;;;;;;;;4970362;28;20114;-74
2021/11/06 10:35:40;;;;;;;19.02;14.68;;;;;;;;;;4970552;28;20386;-74
2021/11/06 10:38:14;;;;;;;19.27;15.43;;;;;;;;;;4967328;28;20398;-75
2021/11/06 10:40:40;;;;;;;20.95;15.95;;;;;;;;;;4961549;28;20023;-75
2021/11/06 10:43:08;;;;;;;22.80;14.57;;;;;;;;;;4970082;28;20121;-73
2021/11/06 10:45:35;;;;;;;18.08;16.15;;;;;;;;;;4968917;28;20100;-74
2021/11/06 10:48:05;;;;;;;25.15;15.57;;;;;;;;;;4968108;28;20037;-73
2021/11/06 10:50:50;;;;;;;25.77;15.07;;;;;;;;;;4972282;28;20035;-73
2021/11/06 10:53:32;;;;;;;19.60;15.27;;;;;;;;;;4968463;28;20034;-73
2021/11/06 10:55:59;;;;;;;18.33;15.00;;;;;;;;;;4962775;28;20083;-75
2021/11/06 10:58:26;;;;;;;19.63;15.52;;;;;;;;;;4966945;28;20050;-74
2021/11/06 11:00:57;;;;;;;17.73;15.05;;;;;;;;;;4967040;28;20129;-73
2021/11/06 11:03:27;;;;;;;21.17;13.77;;;;;;;;;;4970641;28;20022;-73
2021/11/06 11:05:54;;;;;;;18.30;14.18;;;;;;;;;;4968112;28;20280;-74
2021/11/06 11:08:20;;;;;;;32.72;15.65;;;;;;;;;;4964871;28;20033;-74
2021/11/06 11:10:46;;;;;;;20.30;14.27;;;;;;;;;;4968481;28;20122;-73
2021/11/06 11:13:17;;;;;;;22.20;15.00;;;;;;;;;;4966272;28;20030;-73
2021/11/06 11:15:45;;;;;;;21.85;14.13;;;;;;;;;;4966996;28;20106;-74
2021/11/06 11:18:29;;;;;;;19.77;14.30;;;;;;;;;;4965563;28;20031;-74
2021/11/06 11:21:00;;;;;;;20.27;13.68;;;;;;;;;;4968350;28;20150;-74
2021/11/06 11:23:26;;;;;;;20.33;13.43;;;;;;;;;;4967382;28;20026;-74
2021/11/06 11:25:53;;;;;;;18.20;14.23;;;;;;;;;;4971719;28;20225;-74
2021/11/06 11:28:19;;;;;;;20.58;13.52;;;;;;;;;;4967254;28;20045;-74
2021/11/06 11:30:45;;;;;;;19.60;14.05;;;;;;;;;;4969991;28;20035;-74
2021/11/06 11:33:14;;;;;;;19.13;14.13;;;;;;;;;;4969429;28;20031;-75
2021/11/06 11:35:40;;;;;;;20.73;13.95;;;;;;;;;;4969598;28;20041;-74
2021/11/06 11:38:07;;;;;;;19.42;13.80;;;;;;;;;;4964503;28;20065;-73
2021/11/06 11:40:35;;;;;;;18.95;13.15;;;;;;;;;;4970848;28;20030;-74
2021/11/06 11:43:40;;;;;;;18.90;12.48;;;;;;;;;;4969491;28;20027;-75
2021/11/06 11:46:09;;;;;;;18.20;13.63;;;;;;;;;;4922565;29;20020;-74
2021/11/06 11:48:35;;;;;;;16.00;13.27;;;;;;;;;;4924844;29;20099;-73
2021/11/06 11:51:02;;;;;;;15.10;12.23;;;;;;;;;;4949089;28;20113;-73
2021/11/06 11:53:33;;;;;;;23.02;13.65;;;;;;;;;;4969349;28;20034;-74
2021/11/06 11:56:05;;;;;;;24.33;13.48;;;;;;;;;;4960723;28;20023;-74
2021/11/06 11:58:39;;;;;;;16.65;13.48;;;;;;;;;;4963996;28;20082;-74
2021/11/06 12:01:06;;;;;;;17.58;14.13;;;;;;;;;;4962990;28;20037;-74
2021/11/06 12:03:40;;;;;;;17.35;13.00;;;;;;;;;;4967624;28;20027;-74
2021/11/06 12:06:23;;;;;;;18.42;13.77;;;;;;;;;;4970286;28;20027;-74
2021/11/06 12:09:15;;;;;;;20.33;13.85;;;;;;;;;;4965092;28;20100;-74
2021/11/06 12:11:49;;;;;;;16.17;12.95;;;;;;;;;;4969114;28;20043;-74
2021/11/06 12:14:17;;;;;;;21.25;13.52;;;;;;;;;;4973086;28;20035;-74
2021/11/06 12:16:45;;;;;;;23.00;13.40;;;;;;;;;;4974134;28;20077;-74
2021/11/06 12:19:11;;;;;;;16.60;13.65;;;;;;;;;;4970635;28;20027;-74
2021/11/06 12:21:42;;;;;;;17.10;13.15;;;;;;;;;;4969736;28;20393;-74
2021/11/06 12:24:11;;;;;;;19.70;14.57;;;;;;;;;;4972536;28;20446;-73
2021/11/06 12:26:54;;;;;;;18.88;14.07;;;;;;;;;;4972106;28;20027;-74
2021/11/06 12:29:23;;;;;;;21.08;14.35;;;;;;;;;;4968852;28;20033;-74
2021/11/06 12:31:50;;;;;;;17.85;13.65;;;;;;;;;;4970109;28;20457;-74
2021/11/06 12:34:46;;;;;;;22.15;13.48;;;;;;;;;;4973508;28;20029;-75
2021/11/06 12:37:32;;;;;;;20.13;12.65;;;;;;;;;;4951487;28;20417;-74
2021/11/06 12:39:58;;;;;;;18.38;13.73;;;;;;;;;;4966415;28;20026;-74
2021/11/06 12:42:26;;;;;;;17.00;12.63;;;;;;;;;;4972746;28;20094;-74
2021/11/06 12:44:58;;;;;;;19.23;12.75;;;;;;;;;;4971410;28;20089;-74
2021/11/06 12:47:25;;;;;;;19.30;11.70;;;;;;;;;;4973944;28;20061;-74
2021/11/06 12:49:52;;;;;;;18.38;12.45;;;;;;;;;;4966802;28;20181;-76
2021/11/06 12:52:25;;;;;;;15.63;13.20;;;;;;;;;;4970405;28;20030;-75
2021/11/06 12:54:57;;;;;;;20.45;13.15;;;;;;;;;;4972720;28;20109;-73
2021/11/06 12:57:34;;;;;;;16.45;12.50;;;;;;;;;;4973309;28;20118;-76
2021/11/06 13:00:01;;;;;;;19.15;13.52;;;;;;;;;;4966808;28;20129;-75
2021/11/06 13:02:42;;;;;;;20.63;13.25;;;;;;;;;;4971181;28;20074;-74
2021/11/06 13:05:08;;;;;;;;;;;;;;;;;;4969626;28;20031;-77
2021/11/06 13:07:34;;;;;;;20.13;12.73;;;;;;;;;;4971740;28;20024;-73
2021/11/06 13:10:00;;;;;;;17.20;13.15;;;;;;;;;;4970263;28;20033;-75
2021/11/06 13:12:27;;;;;;;18.65;14.43;;;;;;;;;;4974214;28;20039;-76
2021/11/06 13:15:00;;;;;;;19.38;13.07;;;;;;;;;;4972637;28;20070;-74
2021/11/06 13:17:26;;;;;;;20.15;13.27;;;;;;;;;;4973779;28;20023;-76
2021/11/06 13:20:00;;;;;;;20.10;13.10;;;;;;;;;;4969922;28;20678;-75
2021/11/06 13:22:26;;;;;;;19.48;13.40;;;;;;;;;;4972447;28;20433;-76
2021/11/06 13:25:27;;;;;;;21.83;13.65;;;;;;;;;;4973229;28;20035;-77
2021/11/06 13:27:55;;;;;;;21.67;14.68;;;;;;;;;;4921182;29;20587;-75
2021/11/06 13:30:27;;;;;;;17.95;13.05;;;;;;;;;;4957907;28;20042;-76
2021/11/06 13:33:01;;;;;;;16.52;12.82;;;;;;;;;;4973575;28;20397;-76
2021/11/06 13:35:31;;;;;;;16.88;12.57;;;;;;;;;;4966219;28;20122;-78
2021/11/06 13:38:17;;;;;;;15.65;13.63;;;;;;;;;;4968226;28;20422;-76
2021/11/06 13:40:48;;;;;;;22.10;12.57;;;;;;;;;;4971597;28;20031;-76
2021/11/06 13:43:14;;;;;;;21.60;13.27;;;;;;;;;;4972499;28;20036;-76
2021/11/06 13:45:40;;;;;;;17.98;12.57;;;;;;;;;;4970880;28;20530;-78
2021/11/06 13:48:07;;;;;;;20.48;12.38;;;;;;;;;;4969201;28;20503;-76
2021/11/06 13:50:33;;;;;;;22.50;12.98;;;;;;;;;;4986156;28;20043;-75
2021/11/06 13:53:04;;;;;;;20.73;12.40;;;;;;;;;;4970003;28;20433;-75
2021/11/06 13:55:31;;;;;;;21.30;13.43;;;;;;;;;;4971123;28;20031;-78
2021/11/06 13:57:57;;;;;;;17.17;13.15;;;;;;;;;;4961806;28;20089;-78
2021/11/06 14:00:23;;;;;;;17.92;13.30;;;;;;;;;;4970098;28;20039;-75
2021/11/06 14:02:50;;;;;;;26.13;12.82;;;;;;;;;;4972723;28;20035;-75
2021/11/06 14:05:18;;;;;;;13.98;12.05;;;;;;;;;;4972650;28;20577;-75
2021/11/06 14:07:52;;;;;;;22.70;12.60;;;;;;;;;;4970292;28;20054;-76
2021/11/06 14:10:25;;;;;;;17.15;13.00;;;;;;;;;;4967144;28;20521;-76
2021/11/06 14:12:55;;;;;;;19.33;12.88;;;;;;;;;;4970721;28;20049;-78
2021/11/06 14:15:35;;;;;;;17.83;12.95;;;;;;;;;;4971400;28;20106;-75
2021/11/06 14:18:07;;;;;;;21.45;13.25;;;;;;;;;;4969494;28;20023;-76
2021/11/06 14:20:33;;;;;;;;;;;;;;;;;;4971003;28;20046;-76